createdAt,value
2022-10-21T00:01:12.437Z,100255.00
2022-10-21T00:03:41.014Z,100270.00
2022-10-21T00:06:10.493Z,100275.00
2022-10-21T00:08:40.755Z,100270.00
2022-10-21T00:11:10.385Z,100272.00
2022-10-21T00:13:40.463Z,100262.00
2022-10-21T00:16:11.281Z,100262.00
2022-10-21T00:18:41.577Z,100250.00
2022-10-21T00:21:11.690Z,100247.00
2022-10-21T00:23:42.339Z,100251.00
2022-10-21T00:26:11.211Z,100251.00
2022-10-21T00:28:39.837Z,100252.00
2022-10-21T00:31:09.329Z,100257.00
2022-10-21T00:33:38.221Z,100264.00
2022-10-21T00:36:08.217Z,100244.00
2022-10-21T00:38:37.485Z,100248.00
2022-10-21T00:41:07.722Z,100244.00
2022-10-21T00:43:54.965Z,100237.00
2022-10-21T00:46:28.523Z,100218.00
2022-10-21T00:48:59.833Z,100218.00
2022-10-21T00:51:28.751Z,100239.00
2022-10-21T00:53:57.230Z,100230.00
2022-10-21T00:56:30.824Z,100221.00
2022-10-21T00:59:02.345Z,100229.00
2022-10-21T01:01:30.983Z,100212.00
2022-10-21T01:04:01.382Z,100212.00
2022-10-21T01:06:30.306Z,100202.00
2022-10-21T01:09:00.361Z,100179.00
2022-10-21T01:11:34.318Z,100168.00
2022-10-21T01:14:15.685Z,100150.00
2022-10-21T01:16:50.753Z,100137.00
2022-10-21T01:19:41.032Z,100135.00
2022-10-21T01:22:20.779Z,100135.00
2022-10-21T01:25:15.347Z,100142.00
2022-10-21T01:27:54.994Z,100134.00
2022-10-21T01:30:40.511Z,100127.00
2022-10-21T01:33:31.689Z,100130.00
2022-10-21T01:36:07.927Z,100142.00
2022-10-21T01:38:42.890Z,100143.00
2022-10-21T01:41:16.128Z,100126.00
2022-10-21T01:43:50.489Z,100107.00
2022-10-21T01:46:24.583Z,100092.00
2022-10-21T01:48:56.650Z,100099.00
2022-10-21T01:51:27.676Z,100109.00
2022-10-21T01:54:01.358Z,100123.00
2022-10-21T01:56:30.756Z,100114.00
2022-10-21T01:59:00.465Z,100107.00
2022-10-21T02:01:32.046Z,100086.00
2022-10-21T02:04:04.210Z,100080.00
2022-10-21T02:06:32.826Z,100074.00
2022-10-21T02:09:01.808Z,100070.00
2022-10-21T02:11:30.747Z,100073.00
2022-10-21T02:14:03.785Z,100062.00
2022-10-21T02:16:37.971Z,100057.00
2022-10-21T02:19:07.412Z,100066.00
2022-10-21T02:21:37.721Z,100063.00
2022-10-21T02:24:12.698Z,100076.00
2022-10-21T02:26:41.407Z,100079.00
2022-10-21T02:29:10.597Z,100080.00
2022-10-21T02:31:55.327Z,100073.00
2022-10-21T02:34:35.906Z,100090.00
2022-10-21T02:37:13.918Z,100088.00
2022-10-21T02:39:48.354Z,100085.00
2022-10-21T02:42:23.221Z,100094.00
2022-10-21T02:44:52.719Z,100101.00
2022-10-21T02:47:24.375Z,100110.00
2022-10-21T02:49:52.863Z,100100.00
2022-10-21T02:52:21.527Z,100105.00
2022-10-21T02:54:49.977Z,100103.00
2022-10-21T02:57:18.630Z,100104.00
2022-10-21T02:59:47.081Z,100109.00
2022-10-21T03:02:15.684Z,100103.00
2022-10-21T03:04:45.496Z,100091.00
2022-10-21T03:07:14.593Z,100089.00
2022-10-21T03:09:43.087Z,100096.00
2022-10-21T03:12:11.610Z,100104.00
2022-10-21T03:14:40.071Z,100100.00
2022-10-21T03:17:08.510Z,100100.00
2022-10-21T03:19:36.951Z,100089.00
2022-10-21T03:22:06.722Z,100069.00
2022-10-21T03:24:35.189Z,100069.00
2022-10-21T03:27:04.919Z,100064.00
2022-10-21T03:29:33.425Z,100057.00
2022-10-21T03:32:01.922Z,100079.00
2022-10-21T03:34:30.375Z,100069.00
2022-10-21T03:36:58.827Z,100061.00
2022-10-21T03:39:28.703Z,100055.00
2022-10-21T03:41:57.143Z,100059.00
2022-10-21T03:44:25.635Z,100054.00
2022-10-21T03:46:54.088Z,100048.00
2022-10-21T03:49:22.572Z,100042.00
2022-10-21T03:51:51.535Z,100049.00
2022-10-21T03:54:20.420Z,100041.00
2022-10-21T03:56:50.252Z,100041.00
2022-10-21T03:59:18.769Z,100040.00
2022-10-21T04:01:47.302Z,100049.00
2022-10-21T04:04:15.807Z,100045.00
2022-10-21T04:06:44.245Z,100035.00
2022-10-21T04:09:12.967Z,100039.00
2022-10-21T04:11:41.454Z,100033.00
2022-10-21T04:14:15.398Z,100029.00
2022-10-21T04:16:44.199Z,100033.00
2022-10-21T04:19:17.909Z,100025.00
2022-10-21T04:21:46.528Z,100022.00
2022-10-21T04:24:15.285Z,100028.00
2022-10-21T04:26:44.638Z,100032.00
2022-10-21T04:29:14.475Z,100017.00
2022-10-21T04:31:42.942Z,100019.00
2022-10-21T04:34:11.783Z,100013.00
2022-10-21T04:36:40.217Z,100011.00
2022-10-21T04:39:14.639Z,100008.00
2022-10-21T04:41:44.473Z,100007.00
2022-10-21T04:44:14.402Z,100008.00
2022-10-21T04:46:42.849Z,99996.00
2022-10-21T04:49:11.379Z,99991.00
2022-10-21T04:51:39.842Z,99968.00
2022-10-21T04:54:08.280Z,99965.00
2022-10-21T04:56:36.808Z,99982.00
2022-10-21T04:59:05.327Z,99988.00
2022-10-21T05:01:35.233Z,99989.00
2022-10-21T05:04:03.717Z,99988.00
2022-10-21T05:06:32.178Z,99970.00
2022-10-21T05:09:00.699Z,99963.00
2022-10-21T05:11:30.440Z,99954.00
2022-10-21T05:13:58.922Z,99965.00
2022-10-21T05:16:27.408Z,99964.00
2022-10-21T05:18:57.270Z,99965.00
2022-10-21T05:21:25.730Z,99967.00
2022-10-21T05:23:54.251Z,99959.00
2022-10-21T05:26:24.210Z,99954.00
2022-10-21T05:28:52.661Z,99956.00
2022-10-21T05:31:21.128Z,99943.00
2022-10-21T05:33:49.568Z,99935.00
2022-10-21T05:36:21.860Z,99939.00
2022-10-21T05:38:52.852Z,99955.00
2022-10-21T05:41:21.687Z,99951.00
2022-10-21T05:43:50.113Z,99941.00
2022-10-21T05:46:18.580Z,99949.00
2022-10-21T05:51:18.175Z,99940.00
2022-10-21T05:53:46.605Z,99946.00
2022-10-21T05:56:15.084Z,99959.00
2022-10-21T05:58:43.554Z,99968.00
2022-10-21T06:01:12.333Z,99951.00
2022-10-21T06:03:40.829Z,99947.00
2022-10-21T06:06:10.767Z,99948.00
2022-10-21T06:08:40.627Z,99942.00
2022-10-21T06:11:11.850Z,99947.00
2022-10-21T06:13:40.928Z,99955.00
2022-10-21T06:16:10.506Z,99956.00
2022-10-21T06:18:39.235Z,99956.00
2022-10-21T06:21:08.362Z,99955.00
2022-10-21T06:23:37.175Z,99947.00
2022-10-21T06:26:09.245Z,99941.00
2022-10-21T06:28:39.882Z,99943.00
2022-10-21T06:31:10.160Z,99951.00
2022-10-21T06:33:38.592Z,99955.00
2022-10-21T06:36:07.611Z,99968.00
2022-10-21T06:38:37.009Z,99982.00
2022-10-21T06:41:12.159Z,99986.00
2022-10-21T06:43:42.004Z,99972.00
2022-10-21T06:46:12.764Z,99968.00
2022-10-21T06:48:42.033Z,99963.00
2022-10-21T06:51:12.590Z,99975.00
2022-10-21T06:53:41.107Z,99979.00
2022-10-21T06:56:13.729Z,99991.00
2022-10-21T06:58:43.359Z,99987.00
2022-10-21T07:01:27.551Z,99986.00
2022-10-21T07:04:03.356Z,99974.00
2022-10-21T07:09:06.004Z,99970.00
2022-10-21T07:11:36.323Z,99977.00
2022-10-21T07:14:05.656Z,99972.00
2022-10-21T07:16:36.278Z,99973.00
2022-10-21T07:19:04.886Z,99959.00
2022-10-21T07:21:33.918Z,99968.00
2022-10-21T07:24:02.666Z,99964.00
2022-10-21T07:26:33.362Z,99952.00
2022-10-21T07:29:03.331Z,99953.00
2022-10-21T07:31:34.183Z,99940.00
2022-10-21T07:36:38.437Z,99939.00
2022-10-21T07:39:10.304Z,99948.00
2022-10-21T07:41:41.620Z,99956.00
2022-10-21T07:44:12.519Z,99961.00
2022-10-21T07:46:42.286Z,99960.00
2022-10-21T07:49:12.134Z,99956.00
2022-10-21T07:51:41.367Z,99961.00
2022-10-21T07:54:10.362Z,99960.00
2022-10-21T07:56:41.577Z,99965.00
2022-10-21T07:59:13.328Z,99957.00
2022-10-21T08:01:44.504Z,99961.00
2022-10-21T08:04:14.013Z,99958.00
2022-10-21T08:06:42.934Z,99969.00
2022-10-21T08:09:11.450Z,99974.00
2022-10-21T08:11:39.937Z,99971.00
2022-10-21T08:14:10.725Z,99957.00
2022-10-21T08:16:39.440Z,99943.00
2022-10-21T08:19:09.338Z,99942.00
2022-10-21T08:21:39.053Z,99955.00
2022-10-21T08:24:07.971Z,99947.00
2022-10-21T08:26:36.439Z,99941.00
2022-10-21T08:29:05.102Z,99923.00
2022-10-21T08:31:34.968Z,99937.00
2022-10-21T08:34:03.464Z,99921.00
2022-10-21T08:36:31.891Z,99923.00
2022-10-21T08:39:00.573Z,99920.00
2022-10-21T08:41:42.584Z,99918.00
2022-10-21T08:44:19.867Z,99912.00
2022-10-21T08:46:55.461Z,99913.00
2022-10-21T08:49:30.711Z,99911.00
2022-10-21T08:52:04.115Z,99904.00
2022-10-21T08:54:42.085Z,99901.00
2022-10-21T08:57:12.628Z,99886.00
2022-10-21T08:59:42.764Z,99886.00
2022-10-21T09:02:36.788Z,99878.00
2022-10-21T09:05:28.092Z,99884.00
2022-10-21T09:08:07.050Z,99885.00
2022-10-21T09:10:49.629Z,99882.00
2022-10-21T09:13:26.402Z,99882.00
2022-10-21T09:16:05.796Z,99887.00
2022-10-21T09:18:51.558Z,99882.00
2022-10-21T09:21:30.562Z,99883.00
2022-10-21T09:24:06.323Z,99861.00
2022-10-21T09:26:41.650Z,99862.00
2022-10-21T09:29:29.628Z,99865.00
2022-10-21T09:32:09.421Z,99861.00
2022-10-21T09:34:46.743Z,99857.00
2022-10-21T09:37:24.484Z,99871.00
2022-10-21T09:40:01.163Z,99864.00
2022-10-21T09:42:46.251Z,99864.00
2022-10-21T09:45:22.708Z,99859.00
2022-10-21T09:47:56.699Z,99851.00
2022-10-21T09:50:27.432Z,99852.00
2022-10-21T09:53:01.490Z,99857.00
2022-10-21T09:55:31.437Z,99850.00
2022-10-21T09:58:01.765Z,99860.00
2022-10-21T10:00:45.631Z,99859.00
2022-10-21T10:03:14.618Z,99862.00
2022-10-21T10:05:47.997Z,99863.00
2022-10-21T10:08:29.817Z,99850.00
2022-10-21T10:11:16.981Z,99856.00
2022-10-21T10:13:47.699Z,99846.00
2022-10-21T10:16:22.227Z,99841.00
2022-10-21T10:18:52.008Z,99842.00
2022-10-21T10:21:23.076Z,99853.00
2022-10-21T10:23:53.836Z,99854.00
2022-10-21T10:26:27.267Z,99857.00
2022-10-21T10:28:58.764Z,99866.00
2022-10-21T10:31:31.850Z,99862.00
2022-10-21T10:34:03.957Z,99860.00
2022-10-21T10:36:38.077Z,99865.00
2022-10-21T10:39:20.967Z,99863.00
2022-10-21T10:41:51.074Z,99874.00
2022-10-21T10:44:29.125Z,99874.00
2022-10-21T10:46:59.301Z,99869.00
2022-10-21T10:49:28.663Z,99874.00
2022-10-21T10:52:21.088Z,99866.00
2022-10-21T10:54:50.055Z,99859.00
2022-10-21T10:57:29.862Z,99863.00
2022-10-21T11:00:15.528Z,99848.00
2022-10-21T11:02:49.953Z,99860.00
2022-10-21T11:05:24.520Z,99869.00
2022-10-21T11:07:56.027Z,99867.00
2022-10-21T11:10:36.005Z,99871.00
2022-10-21T11:13:09.827Z,99860.00
2022-10-21T11:16:02.286Z,99864.00
2022-10-21T11:18:36.045Z,99863.00
2022-10-21T11:21:15.189Z,99862.00
2022-10-21T11:24:03.659Z,99852.00
2022-10-21T11:26:46.062Z,99852.00
2022-10-21T11:29:29.159Z,99846.00
2022-10-21T11:32:12.323Z,99846.00
2022-10-21T11:34:52.487Z,99842.00
2022-10-21T11:37:32.785Z,99835.00
2022-10-21T11:40:11.881Z,99841.00
2022-10-21T11:42:43.569Z,99839.00
2022-10-21T11:45:38.656Z,99833.00
2022-10-21T11:48:17.442Z,99834.00
2022-10-21T11:50:51.701Z,99827.00
2022-10-21T11:53:33.116Z,99825.00
2022-10-21T11:56:10.978Z,99828.00
2022-10-21T11:58:50.327Z,99831.00
2022-10-21T12:01:30.616Z,99827.00
2022-10-21T12:04:22.610Z,99824.00
2022-10-21T12:07:00.057Z,99813.00
2022-10-21T12:09:33.884Z,99826.00
2022-10-21T12:12:07.347Z,99829.00
2022-10-21T12:14:38.289Z,99828.00
2022-10-21T12:17:11.902Z,99834.00
2022-10-21T12:19:40.491Z,99844.00
2022-10-21T12:22:11.684Z,99841.00
2022-10-21T12:24:50.541Z,99845.00
2022-10-21T12:27:26.557Z,99847.00
2022-10-21T12:30:03.864Z,99851.00
2022-10-21T12:32:39.337Z,99846.00
2022-10-21T12:35:12.522Z,99856.00
2022-10-21T12:38:03.147Z,99847.00
2022-10-21T12:40:39.788Z,99842.00
2022-10-21T12:43:23.663Z,99843.00
2022-10-21T12:46:07.584Z,99853.00
2022-10-21T12:48:39.377Z,99854.00
2022-10-21T12:51:17.649Z,99849.00
2022-10-21T12:56:31.100Z,99847.00
2022-10-21T12:59:04.469Z,99851.00
2022-10-21T13:01:40.140Z,99853.00
2022-10-21T13:04:49.007Z,99861.00
2022-10-21T13:07:36.043Z,99849.00
2022-10-21T13:10:30.897Z,99846.00
2022-10-21T13:13:35.574Z,99848.00
2022-10-21T13:16:36.132Z,99855.00
2022-10-21T13:19:06.435Z,99856.00
2022-10-21T13:21:40.694Z,99850.00
2022-10-21T13:24:24.767Z,99844.00
2022-10-21T13:26:55.781Z,99853.00
2022-10-21T13:29:35.036Z,99858.00
2022-10-21T13:32:36.186Z,99853.00
2022-10-21T13:35:33.205Z,99850.00
2022-10-21T13:38:06.604Z,99857.00
2022-10-21T13:40:46.133Z,99862.00
2022-10-21T13:43:18.770Z,99849.00
2022-10-21T13:45:50.506Z,99848.00
2022-10-21T13:48:24.931Z,99851.00
2022-10-21T13:50:54.162Z,99860.00
2022-10-21T13:53:29.702Z,99848.00
2022-10-21T13:56:02.937Z,99854.00
2022-10-21T13:58:36.077Z,99843.00
2022-10-21T14:01:12.206Z,99851.00
2022-10-21T14:03:43.926Z,99841.00
2022-10-21T14:06:19.024Z,99841.00
2022-10-21T14:08:48.589Z,99850.00
2022-10-21T14:11:20.884Z,99853.00
2022-10-21T14:13:51.711Z,99856.00
2022-10-21T14:16:26.392Z,99848.00
2022-10-21T14:18:56.399Z,99851.00
2022-10-21T14:21:28.970Z,99851.00
2022-10-21T14:23:57.988Z,99847.00
2022-10-21T14:26:30.835Z,99847.00
2022-10-21T14:29:01.186Z,99845.00
2022-10-21T14:31:30.165Z,99845.00
2022-10-21T14:34:00.110Z,99836.00
2022-10-21T14:36:30.098Z,99836.00
2022-10-21T14:39:03.668Z,99837.00
2022-10-21T14:41:36.154Z,99834.00
2022-10-21T14:44:13.279Z,99842.00
2022-10-21T14:46:44.124Z,99846.00
2022-10-21T14:49:23.843Z,99850.00
2022-10-21T14:51:58.319Z,99851.00
2022-10-21T14:54:38.239Z,99881.00
2022-10-21T14:57:06.875Z,99901.00
2022-10-21T14:59:40.367Z,99880.00
2022-10-21T15:02:21.841Z,99881.00
2022-10-21T15:04:57.391Z,99876.00
2022-10-21T15:07:29.857Z,99883.00
2022-10-21T15:10:00.736Z,99883.00
2022-10-21T15:12:39.885Z,99884.00
2022-10-21T15:15:44.496Z,99877.00
2022-10-21T15:18:19.554Z,99885.00
2022-10-21T15:20:54.932Z,99868.00
2022-10-21T15:23:27.900Z,99848.00
2022-10-21T15:26:00.400Z,99848.00
2022-10-21T15:28:32.024Z,99840.00
2022-10-21T15:31:02.382Z,99841.00
2022-10-21T15:33:31.491Z,99846.00
2022-10-21T15:36:06.195Z,99844.00
2022-10-21T15:38:34.711Z,99844.00
2022-10-21T15:41:03.187Z,99845.00
2022-10-21T15:43:31.885Z,99838.00
2022-10-21T15:46:00.310Z,99835.00
2022-10-21T15:48:29.405Z,99847.00
2022-10-21T15:50:58.077Z,99843.00
2022-10-21T15:53:27.902Z,99844.00
2022-10-21T15:55:56.718Z,99844.00
2022-10-21T15:58:25.307Z,99843.00
2022-10-21T16:00:54.051Z,99851.00
2022-10-21T16:03:22.934Z,99851.00
2022-10-21T16:05:52.042Z,99856.00
2022-10-21T16:08:20.635Z,99858.00
2022-10-21T16:10:50.535Z,99858.00
2022-10-21T16:13:19.117Z,99854.00
2022-10-21T16:15:47.672Z,99861.00
2022-10-21T16:18:17.025Z,99863.00
2022-10-21T16:20:46.068Z,99853.00
2022-10-21T16:23:15.206Z,99854.00
2022-10-21T16:25:43.735Z,99861.00
2022-10-21T16:28:14.440Z,99851.00
2022-10-21T16:30:42.899Z,99845.00
2022-10-21T16:33:11.521Z,99838.00
2022-10-21T16:35:40.232Z,99844.00
2022-10-21T16:38:08.805Z,99836.00
2022-10-21T16:40:39.327Z,99847.00
2022-10-21T16:43:07.899Z,99850.00
2022-10-21T16:45:45.132Z,99854.00
2022-10-21T16:48:13.585Z,99864.00
2022-10-21T16:50:46.161Z,99870.00
2022-10-21T16:53:16.380Z,99867.00
2022-10-21T16:55:44.932Z,99865.00
2022-10-21T16:58:13.350Z,99867.00
2022-10-21T17:00:44.689Z,99864.00
2022-10-21T17:03:13.817Z,99866.00
2022-10-21T17:05:42.469Z,99856.00
2022-10-21T17:08:10.879Z,99858.00
2022-10-21T17:10:39.293Z,99862.00
2022-10-21T17:13:07.787Z,99846.00
2022-10-21T17:15:36.445Z,99858.00
2022-10-21T17:18:06.430Z,99855.00
2022-10-21T17:20:35.063Z,99846.00
2022-10-21T17:23:03.743Z,99846.00
2022-10-21T17:25:32.807Z,99842.00
2022-10-21T17:28:01.248Z,99842.00
2022-10-21T17:30:29.705Z,99853.00
2022-10-21T17:32:58.166Z,99855.00
2022-10-21T17:35:28.029Z,99856.00
2022-10-21T17:37:56.477Z,99856.00
2022-10-21T17:40:27.508Z,99865.00
2022-10-21T17:42:55.943Z,99874.00
2022-10-21T17:45:25.057Z,99866.00
2022-10-21T17:47:54.538Z,99866.00
2022-10-21T17:50:25.457Z,99871.00
2022-10-21T17:52:56.006Z,99867.00
2022-10-21T17:55:24.735Z,99866.00
2022-10-21T17:57:53.169Z,99872.00
2022-10-21T18:00:21.705Z,99861.00
2022-10-21T18:02:50.148Z,99871.00
2022-10-21T18:05:18.644Z,99874.00
2022-10-21T18:07:47.101Z,99867.00
2022-10-21T18:10:16.888Z,99868.00
2022-10-21T18:12:45.329Z,99864.00
2022-10-21T18:15:13.937Z,99861.00
2022-10-21T18:17:43.100Z,99864.00
2022-10-21T18:20:12.520Z,99853.00
2022-10-21T18:22:41.471Z,99856.00
2022-10-21T18:25:10.857Z,99850.00
2022-10-21T18:27:41.131Z,99849.00
2022-10-21T18:30:10.639Z,99847.00
2022-10-21T18:32:39.625Z,99837.00
2022-10-21T18:35:09.363Z,99832.00
2022-10-21T18:37:38.178Z,99825.00
2022-10-21T18:40:08.326Z,99828.00
2022-10-21T18:42:36.815Z,99832.00
2022-10-21T18:45:07.646Z,99826.00
2022-10-21T18:47:36.902Z,99823.00
2022-10-21T18:50:08.294Z,99822.00
2022-10-21T18:52:36.890Z,99818.00
2022-10-21T18:57:35.106Z,99804.00
2022-10-21T19:00:03.561Z,99796.00
2022-10-21T19:02:33.380Z,99792.00
2022-10-21T19:05:02.437Z,99809.00
2022-10-21T19:07:31.223Z,99806.00
2022-10-21T19:09:59.700Z,99811.00
2022-10-21T19:12:28.187Z,99822.00
2022-10-21T19:14:57.133Z,99809.00
2022-10-21T19:17:27.426Z,99808.00
2022-10-21T19:19:59.221Z,99823.00
2022-10-21T19:22:27.967Z,99822.00
2022-10-21T19:24:56.399Z,99819.00
2022-10-21T19:27:24.939Z,99825.00
2022-10-21T19:29:53.440Z,99819.00
2022-10-21T19:32:21.908Z,99826.00
2022-10-21T19:34:50.372Z,99827.00
2022-10-21T19:37:20.247Z,99825.00
2022-10-21T19:39:48.723Z,99831.00
2022-10-21T19:42:17.218Z,99827.00
2022-10-21T19:44:45.770Z,99833.00
2022-10-21T19:47:14.232Z,99834.00
2022-10-21T19:49:42.719Z,99833.00
2022-10-21T19:52:11.196Z,99831.00
2022-10-21T19:54:41.065Z,99843.00
2022-10-21T19:57:09.504Z,99832.00
2022-10-21T19:59:37.995Z,99835.00
2022-10-21T20:02:06.460Z,99829.00
2022-10-21T20:04:36.078Z,99833.00
2022-10-21T20:07:05.019Z,99824.00
2022-10-21T20:09:35.116Z,99824.00
2022-10-21T20:12:07.847Z,99836.00
2022-10-21T20:14:36.936Z,99841.00
2022-10-21T20:17:05.490Z,99846.00
2022-10-21T20:19:33.959Z,99850.00
2022-10-21T20:22:02.446Z,99843.00
2022-10-21T20:24:30.998Z,99857.00
2022-10-21T20:27:01.497Z,99855.00
2022-10-21T20:29:32.510Z,99865.00
2022-10-21T20:32:01.568Z,99863.00
2022-10-21T20:34:33.943Z,99862.00
2022-10-21T20:37:05.248Z,99877.00
2022-10-21T20:39:33.730Z,99860.00
2022-10-21T20:42:02.153Z,99860.00
2022-10-21T20:44:32.058Z,99864.00
2022-10-21T20:47:00.581Z,99861.00
2022-10-21T20:49:29.128Z,99856.00
2022-10-21T20:51:57.665Z,99840.00
2022-10-21T20:54:28.056Z,99852.00
2022-10-21T20:56:56.900Z,99849.00
2022-10-21T20:59:25.371Z,99836.00
2022-10-21T21:01:55.273Z,99848.00
2022-10-21T21:04:25.326Z,99853.00
2022-10-21T21:06:53.895Z,99849.00
2022-10-21T21:09:57.850Z,99860.00
2022-10-21T21:12:11.967Z,99866.00
2022-10-21T21:14:40.679Z,99856.00
2022-10-21T21:17:10.906Z,99855.00
2022-10-21T21:19:40.923Z,99861.00
2022-10-21T21:22:09.513Z,99867.00
2022-10-21T21:24:38.009Z,99863.00
2022-10-21T21:27:06.502Z,99853.00
2022-10-21T21:29:35.754Z,99847.00
2022-10-21T21:32:05.110Z,99842.00
2022-10-21T21:34:35.393Z,99849.00
2022-10-21T21:37:04.337Z,99849.00
2022-10-21T21:39:33.110Z,99856.00
2022-10-21T21:42:01.717Z,99846.00
2022-10-21T21:44:30.280Z,99851.00
2022-10-21T21:46:59.520Z,99858.00
2022-10-21T21:49:27.996Z,99874.00
2022-10-21T21:51:58.227Z,99880.00
2022-10-21T21:54:27.042Z,99871.00
2022-10-21T21:57:10.357Z,99882.00
2022-10-21T21:59:44.364Z,99893.00
2022-10-21T22:02:14.036Z,99901.00
2022-10-21T22:04:42.852Z,99892.00
2022-10-21T22:07:16.063Z,99886.00
2022-10-21T22:09:44.502Z,99866.00
2022-10-21T22:12:14.706Z,99866.00
2022-10-21T22:14:43.841Z,99850.00
2022-10-21T22:17:12.576Z,99840.00
2022-10-21T22:19:41.012Z,99844.00
2022-10-21T22:22:13.229Z,99848.00
2022-10-21T22:24:42.182Z,99850.00
2022-10-21T22:27:10.717Z,99840.00
2022-10-21T22:29:39.344Z,99840.00
2022-10-21T22:32:07.815Z,99865.00
2022-10-21T22:34:36.263Z,99874.00
2022-10-21T22:37:04.697Z,99872.00
2022-10-21T22:39:34.456Z,99868.00
2022-10-21T22:42:02.951Z,99869.00
2022-10-21T22:44:31.414Z,99863.00
2022-10-21T22:46:59.907Z,99869.00
2022-10-21T22:49:28.371Z,99860.00
2022-10-21T22:51:56.862Z,99850.00
2022-10-21T22:54:48.151Z,99842.00
2022-10-21T22:57:15.122Z,99839.00
2022-10-21T22:59:44.210Z,99824.00
2022-10-21T23:02:13.233Z,99820.00
2022-10-21T23:04:41.742Z,99820.00
2022-10-21T23:07:10.199Z,99823.00
2022-10-21T23:09:38.664Z,99822.00
2022-10-21T23:12:07.313Z,99817.00
2022-10-21T23:14:37.106Z,99819.00
2022-10-21T23:17:05.667Z,99812.00
2022-10-21T23:19:34.146Z,99824.00
2022-10-21T23:22:02.637Z,99806.00
2022-10-21T23:24:31.157Z,99795.00
2022-10-21T23:27:01.390Z,99801.00
2022-10-21T23:29:30.485Z,99791.00
2022-10-21T23:32:00.297Z,99785.00
2022-10-21T23:34:28.810Z,99811.00
2022-10-21T23:36:57.391Z,99824.00
2022-10-21T23:39:26.865Z,99831.00
2022-10-21T23:41:55.572Z,99842.00
2022-10-21T23:44:24.067Z,99841.00
2022-10-21T23:46:52.519Z,99846.00
2022-10-21T23:49:22.662Z,99847.00
2022-10-21T23:51:51.181Z,99857.00
2022-10-21T23:54:19.657Z,99857.00
2022-10-21T23:56:48.090Z,99862.00
2022-10-21T23:59:16.698Z,99862.00
